Time;durP1;ratioP1;P1;durP2;ratioP2;P2;SDS_P1;SDS_P2;PMS_P1;PMS_P2;Temp;Humidity;BMP_temperature;BMP_pressure;BME280_temperature;BME280_humidity;BME280_pressure;Samples;Min_cycle;Max_cycle;Signal;HPM_P1;HPM_P2
2019/11/20 00:00:34;;;;;;;16.95;11.6;;;;;;;0.07;86.98926;95169.02;;;;
2019/11/20 00:01:37;;;;;;;16.95;11.6;;;;;;;0.07;86.98926;95169.02;;;;
2019/11/20 00:02:38;;;;;;;16.95;11.6;;;;;;;0.07;86.98926;95169.02;;;;
2019/11/20 00:03:39;;;;;;;16.95;11.6;;;;;;;0.07;86.98926;95169.02;;;;
2019/11/20 00:04:42;;;;;;;16.95;11.6;;;;;;;0.07;86.98926;95169.02;;;;
2019/11/20 00:05:43;;;;;;;16.95;11.6;;;;;;;0.07;86.98926;95169.02;;;;
2019/11/20 00:06:44;;;;;;;16.95;11.6;;;;;;;0.07;86.98926;95169.02;;;;
2019/11/20 00:07:45;;;;;;;16.95;11.6;;;;;;;0.07;86.98926;95169.02;;;;
2019/11/20 00:08:47;;;;;;;16.95;11.6;;;;;;;0.07;86.98926;95169.02;;;;
2019/11/20 00:09:48;;;;;;;16.95;11.6;;;;;;;0.07;86.98926;95169.02;;;;
2019/11/20 00:10:49;;;;;;;16.95;11.6;;;;;;;0.07;86.98926;95169.02;;;;
2019/11/20 00:11:50;;;;;;;15.65;10.45;;;;;;;0.35;86.76563;95167.11;;;;
2019/11/20 00:12:51;;;;;;;15.65;10.45;;;;;;;0.35;86.76563;95167.11;;;;
2019/11/20 00:13:53;;;;;;;15.65;10.45;;;;;;;0.35;86.76563;95167.11;;;;
2019/11/20 00:14:54;;;;;;;15.65;10.45;;;;;;;0.35;86.76563;95167.11;;;;
2019/11/20 00:15:55;;;;;;;15.65;10.45;;;;;;;0.35;86.76563;95167.11;;;;
2019/11/20 00:16:56;;;;;;;15.65;10.45;;;;;;;0.35;86.76563;95167.11;;;;
2019/11/20 00:17:57;;;;;;;15.65;10.45;;;;;;;0.35;86.76563;95167.11;;;;
2019/11/20 00:19:00;;;;;;;15.65;10.45;;;;;;;0.35;86.76563;95167.11;;;;
2019/11/20 00:20:01;;;;;;;15.65;10.45;;;;;;;0.35;86.76563;95167.11;;;;
2019/11/20 00:21:02;;;;;;;15.65;10.45;;;;;;;0.35;86.76563;95167.11;;;;
2019/11/20 00:22:04;;;;;;;14.3;10.05;;;;;;;0.59;86.69922;95166.11;;;;
2019/11/20 00:23:05;;;;;;;14.3;10.05;;;;;;;0.59;86.69922;95166.11;;;;
2019/11/20 00:24:06;;;;;;;14.3;10.05;;;;;;;0.59;86.69922;95166.11;;;;
2019/11/20 00:25:07;;;;;;;14.3;10.05;;;;;;;0.59;86.69922;95166.11;;;;
2019/11/20 00:26:19;;;;;;;14.3;10.05;;;;;;;0.59;86.69922;95166.11;;;;
2019/11/20 00:27:20;;;;;;;14.3;10.05;;;;;;;0.59;86.69922;95166.11;;;;
2019/11/20 00:28:22;;;;;;;14.3;10.05;;;;;;;0.59;86.69922;95166.11;;;;
2019/11/20 00:29:23;;;;;;;14.3;10.05;;;;;;;0.59;86.69922;95166.11;;;;
2019/11/20 00:30:24;;;;;;;14.3;10.05;;;;;;;0.59;86.69922;95166.11;;;;
2019/11/20 00:31:25;;;;;;;14.3;10.05;;;;;;;0.59;86.69922;95166.11;;;;
2019/11/20 00:32:26;;;;;;;12.75;9.15;;;;;;;0.82;86.75684;95166.42;;;;
2019/11/20 00:33:27;;;;;;;12.75;9.15;;;;;;;0.82;86.75684;95166.42;;;;
2019/11/20 00:34:28;;;;;;;12.75;9.15;;;;;;;0.82;86.75684;95166.42;;;;
2019/11/20 00:35:29;;;;;;;12.75;9.15;;;;;;;0.82;86.75684;95166.42;;;;
2019/11/20 00:36:31;;;;;;;12.75;9.15;;;;;;;0.82;86.75684;95166.42;;;;
2019/11/20 00:37:32;;;;;;;12.75;9.15;;;;;;;0.82;86.75684;95166.42;;;;
2019/11/20 00:38:33;;;;;;;12.75;9.15;;;;;;;0.82;86.75684;95166.42;;;;
2019/11/20 00:39:34;;;;;;;12.75;9.15;;;;;;;0.82;86.75684;95166.42;;;;
2019/11/20 00:40:35;;;;;;;12.75;9.15;;;;;;;0.82;86.75684;95166.42;;;;
2019/11/20 00:41:36;;;;;;;12.75;9.15;;;;;;;0.82;86.75684;95166.42;;;;
2019/11/20 00:42:38;;;;;;;12.75;9.15;;;;;;;0.82;86.75684;95166.42;;;;
2019/11/20 00:43:39;;;;;;;12.7;9.050001;;;;;;;1.11;86.66016;95170.04;;;;
2019/11/20 00:44:40;;;;;;;12.7;9.050001;;;;;;;1.11;86.66016;95170.04;;;;
2019/11/20 00:45:41;;;;;;;12.7;9.050001;;;;;;;1.11;86.66016;95170.04;;;;
2019/11/20 00:46:42;;;;;;;12.7;9.050001;;;;;;;1.11;86.66016;95170.04;;;;
2019/11/20 00:47:43;;;;;;;12.7;9.050001;;;;;;;1.11;86.66016;95170.04;;;;
2019/11/20 00:48:45;;;;;;;12.7;9.050001;;;;;;;1.11;86.66016;95170.04;;;;
2019/11/20 00:49:46;;;;;;;12.7;9.050001;;;;;;;1.11;86.66016;95170.04;;;;
2019/11/20 00:50:47;;;;;;;12.7;9.050001;;;;;;;1.11;86.66016;95170.04;;;;
2019/11/20 00:51:48;;;;;;;12.7;9.050001;;;;;;;1.11;86.66016;95170.04;;;;
2019/11/20 00:52:49;;;;;;;12.7;9.050001;;;;;;;1.11;86.66016;95170.04;;;;
2019/11/20 00:53:51;;;;;;;11.8;8.799998;;;;;;;1.29;86.50879;95162.55;;;;
2019/11/20 00:54:52;;;;;;;11.8;8.799998;;;;;;;1.29;86.50879;95162.55;;;;
2019/11/20 00:55:53;;;;;;;11.8;8.799998;;;;;;;1.29;86.50879;95162.55;;;;
2019/11/20 00:56:54;;;;;;;11.8;8.799998;;;;;;;1.29;86.50879;95162.55;;;;
2019/11/20 00:57:55;;;;;;;11.8;8.799998;;;;;;;1.29;86.50879;95162.55;;;;
2019/11/20 00:58:57;;;;;;;11.8;8.799998;;;;;;;1.29;86.50879;95162.55;;;;
2019/11/20 00:59:58;;;;;;;11.8;8.799998;;;;;;;1.29;86.50879;95162.55;;;;
2019/11/20 01:00:59;;;;;;;11.8;8.799998;;;;;;;1.29;86.50879;95162.55;;;;
2019/11/20 01:02:01;;;;;;;11.8;8.799998;;;;;;;1.29;86.50879;95162.55;;;;
2019/11/20 01:03:02;;;;;;;11.8;8.799998;;;;;;;1.29;86.50879;95162.55;;;;
2019/11/20 01:04:04;;;;;;;11.8;8.799998;;;;;;;1.29;86.50879;95162.55;;;;
2019/11/20 01:05:05;;;;;;;12.3;9;;;;;;;1.43;86.57715;95171.53;;;;
2019/11/20 01:06:06;;;;;;;12.3;9;;;;;;;1.43;86.57715;95171.53;;;;
2019/11/20 01:07:08;;;;;;;12.3;9;;;;;;;1.43;86.57715;95171.53;;;;
2019/11/20 01:08:09;;;;;;;12.3;9;;;;;;;1.43;86.57715;95171.53;;;;
2019/11/20 01:09:10;;;;;;;12.3;9;;;;;;;1.43;86.57715;95171.53;;;;
2019/11/20 01:10:11;;;;;;;12.3;9;;;;;;;1.43;86.57715;95171.53;;;;
2019/11/20 01:11:12;;;;;;;12.3;9;;;;;;;1.43;86.57715;95171.53;;;;
2019/11/20 01:12:18;;;;;;;12.3;9;;;;;;;1.43;86.57715;95171.53;;;;
2019/11/20 01:13:19;;;;;;;12.3;9;;;;;;;1.43;86.57715;95171.53;;;;
2019/11/20 01:14:20;;;;;;;12.3;9;;;;;;;1.43;86.57715;95171.53;;;;
2019/11/20 01:15:21;;;;;;;11.95;9.299999;;;;;;;1.56;86.67871;95169.48;;;;
2019/11/20 01:16:23;;;;;;;11.95;9.299999;;;;;;;1.56;86.67871;95169.48;;;;
2019/11/20 01:17:28;;;;;;;11.95;9.299999;;;;;;;1.56;86.67871;95169.48;;;;
2019/11/20 01:18:29;;;;;;;11.95;9.299999;;;;;;;1.56;86.67871;95169.48;;;;
2019/11/20 01:19:31;;;;;;;11.95;9.299999;;;;;;;1.56;86.67871;95169.48;;;;
2019/11/20 01:20:32;;;;;;;11.95;9.299999;;;;;;;1.56;86.67871;95169.48;;;;
2019/11/20 01:21:33;;;;;;;11.95;9.299999;;;;;;;1.56;86.67871;95169.48;;;;
2019/11/20 01:22:34;;;;;;;11.95;9.299999;;;;;;;1.56;86.67871;95169.48;;;;
2019/11/20 01:23:35;;;;;;;11.95;9.299999;;;;;;;1.56;86.67871;95169.48;;;;
2019/11/20 01:24:36;;;;;;;11.95;9.299999;;;;;;;1.56;86.67871;95169.48;;;;
2019/11/20 01:25:38;;;;;;;12.45;9.199999;;;;;;;1.75;86.73535;95175.56;;;;
2019/11/20 01:26:39;;;;;;;12.45;9.199999;;;;;;;1.75;86.73535;95175.56;;;;
2019/11/20 01:27:40;;;;;;;12.45;9.199999;;;;;;;1.75;86.73535;95175.56;;;;
2019/11/20 01:28:41;;;;;;;12.45;9.199999;;;;;;;1.75;86.73535;95175.56;;;;
2019/11/20 01:29:42;;;;;;;12.45;9.199999;;;;;;;1.75;86.73535;95175.56;;;;
2019/11/20 01:30:43;;;;;;;12.45;9.199999;;;;;;;1.75;86.73535;95175.56;;;;
2019/11/20 01:31:45;;;;;;;12.45;9.199999;;;;;;;1.75;86.73535;95175.56;;;;
2019/11/20 01:32:46;;;;;;;12.45;9.199999;;;;;;;1.75;86.73535;95175.56;;;;
2019/11/20 01:33:47;;;;;;;12.45;9.199999;;;;;;;1.75;86.73535;95175.56;;;;
2019/11/20 01:34:48;;;;;;;12.45;9.199999;;;;;;;1.75;86.73535;95175.56;;;;
2019/11/20 01:35:49;;;;;;;12.45;9.199999;;;;;;;1.75;86.73535;95175.56;;;;
2019/11/20 01:36:50;;;;;;;12.3;9.599999;;;;;;;1.86;86.7373;95170.28;;;;
2019/11/20 01:37:51;;;;;;;12.3;9.599999;;;;;;;1.86;86.7373;95170.28;;;;
2019/11/20 01:38:52;;;;;;;12.3;9.599999;;;;;;;1.86;86.7373;95170.28;;;;
2019/11/20 01:39:54;;;;;;;12.3;9.599999;;;;;;;1.86;86.7373;95170.28;;;;
2019/11/20 01:40:55;;;;;;;12.3;9.599999;;;;;;;1.86;86.7373;95170.28;;;;
2019/11/20 01:41:56;;;;;;;12.3;9.599999;;;;;;;1.86;86.7373;95170.28;;;;
2019/11/20 01:42:57;;;;;;;12.3;9.599999;;;;;;;1.86;86.7373;95170.28;;;;
2019/11/20 01:43:58;;;;;;;12.3;9.599999;;;;;;;1.86;86.7373;95170.28;;;;
2019/11/20 01:44:59;;;;;;;12.3;9.599999;;;;;;;1.86;86.7373;95170.28;;;;
2019/11/20 01:46:00;;;;;;;12.3;9.599999;;;;;;;1.86;86.7373;95170.28;;;;
2019/11/20 01:47:02;;;;;;;15.7;10.5;;;;;;;1.94;86.98242;95160.88;;;;
2019/11/20 01:48:03;;;;;;;15.7;10.5;;;;;;;1.94;86.98242;95160.88;;;;
2019/11/20 01:49:05;;;;;;;15.7;10.5;;;;;;;1.94;86.98242;95160.88;;;;
2019/11/20 01:50:06;;;;;;;15.7;10.5;;;;;;;1.94;86.98242;95160.88;;;;
2019/11/20 01:51:07;;;;;;;15.7;10.5;;;;;;;1.94;86.98242;95160.88;;;;
2019/11/20 01:52:26;;;;;;;15.7;10.5;;;;;;;1.94;86.98242;95160.88;;;;
2019/11/20 01:53:27;;;;;;;15.7;10.5;;;;;;;1.94;86.98242;95160.88;;;;
2019/11/20 01:54:29;;;;;;;15.7;10.5;;;;;;;1.94;86.98242;95160.88;;;;
2019/11/20 01:55:30;;;;;;;15.7;10.5;;;;;;;1.94;86.98242;95160.88;;;;
2019/11/20 01:56:33;;;;;;;15.7;10.5;;;;;;;1.94;86.98242;95160.88;;;;
2019/11/20 01:57:34;;;;;;;13.65;10.2;;;;;;;2.07;87.13477;95161;;;;
2019/11/20 01:58:35;;;;;;;13.65;10.2;;;;;;;2.07;87.13477;95161;;;;
2019/11/20 01:59:36;;;;;;;13.65;10.2;;;;;;;2.07;87.13477;95161;;;;
2019/11/20 02:00:37;;;;;;;13.65;10.2;;;;;;;2.07;87.13477;95161;;;;
2019/11/20 02:01:39;;;;;;;13.65;10.2;;;;;;;2.07;87.13477;95161;;;;
2019/11/20 02:02:41;;;;;;;13.65;10.2;;;;;;;2.07;87.13477;95161;;;;
2019/11/20 02:03:42;;;;;;;13.65;10.2;;;;;;;2.07;87.13477;95161;;;;
2019/11/20 02:04:43;;;;;;;13.65;10.2;;;;;;;2.07;87.13477;95161;;;;
2019/11/20 02:05:45;;;;;;;13.65;10.2;;;;;;;2.07;87.13477;95161;;;;
2019/11/20 02:06:46;;;;;;;13.65;10.2;;;;;;;2.07;87.13477;95161;;;;
2019/11/20 02:07:47;;;;;;;13.65;9.95;;;;;;;2.12;87.18848;95148.78;;;;
2019/11/20 02:08:49;;;;;;;13.65;9.95;;;;;;;2.12;87.18848;95148.78;;;;
2019/11/20 02:09:50;;;;;;;13.65;9.95;;;;;;;2.12;87.18848;95148.78;;;;
2019/11/20 02:10:51;;;;;;;13.65;9.95;;;;;;;2.12;87.18848;95148.78;;;;
2019/11/20 02:11:52;;;;;;;13.65;9.95;;;;;;;2.12;87.18848;95148.78;;;;
2019/11/20 02:12:54;;;;;;;13.65;9.95;;;;;;;2.12;87.18848;95148.78;;;;
2019/11/20 02:13:55;;;;;;;13.65;9.95;;;;;;;2.12;87.18848;95148.78;;;;
2019/11/20 02:14:56;;;;;;;13.65;9.95;;;;;;;2.12;87.18848;95148.78;;;;
2019/11/20 02:15:57;;;;;;;13.65;9.95;;;;;;;2.12;87.18848;95148.78;;;;
2019/11/20 02:17:10;;;;;;;13.65;9.95;;;;;;;2.12;87.18848;95148.78;;;;
2019/11/20 02:21:44;;;;;;;13.6;10.5;;;;;;;2.21;87.37207;95140.58;;;;
2019/11/20 02:22:45;;;;;;;13.6;10.5;;;;;;;2.21;87.37207;95140.58;;;;
2019/11/20 02:23:46;;;;;;;13.6;10.5;;;;;;;2.21;87.37207;95140.58;;;;
2019/11/20 02:24:48;;;;;;;13.6;10.5;;;;;;;2.21;87.37207;95140.58;;;;
2019/11/20 02:25:49;;;;;;;13.6;10.5;;;;;;;2.21;87.37207;95140.58;;;;
2019/11/20 02:26:50;;;;;;;13.6;10.5;;;;;;;2.21;87.37207;95140.58;;;;
2019/11/20 02:27:51;;;;;;;13.6;10.5;;;;;;;2.21;87.37207;95140.58;;;;
2019/11/20 02:28:52;;;;;;;13.6;10.5;;;;;;;2.21;87.37207;95140.58;;;;
2019/11/20 02:29:54;;;;;;;13.5;10.45;;;;;;;2.21;87.50879;95140.58;;;;
2019/11/20 02:30:55;;;;;;;13.5;10.45;;;;;;;2.21;87.50879;95140.58;;;;
2019/11/20 02:31:56;;;;;;;13.5;10.45;;;;;;;2.21;87.50879;95140.58;;;;
2019/11/20 02:32:57;;;;;;;13.5;10.45;;;;;;;2.21;87.50879;95140.58;;;;
2019/11/20 02:33:58;;;;;;;13.5;10.45;;;;;;;2.21;87.50879;95140.58;;;;
2019/11/20 02:34:59;;;;;;;13.5;10.45;;;;;;;2.21;87.50879;95140.58;;;;
2019/11/20 02:36:01;;;;;;;13.5;10.45;;;;;;;2.21;87.50879;95140.58;;;;
2019/11/20 02:37:02;;;;;;;13.5;10.45;;;;;;;2.21;87.50879;95140.58;;;;
2019/11/20 02:38:03;;;;;;;13.5;10.45;;;;;;;2.21;87.50879;95140.58;;;;
2019/11/20 02:39:05;;;;;;;13.5;10.45;;;;;;;2.21;87.50879;95140.58;;;;
2019/11/20 02:40:06;;;;;;;12.4;9.9;;;;;;;2.28;87.78516;95137.09;;;;
2019/11/20 02:41:07;;;;;;;12.4;9.9;;;;;;;2.28;87.78516;95137.09;;;;
2019/11/20 02:42:08;;;;;;;12.4;9.9;;;;;;;2.28;87.78516;95137.09;;;;
2019/11/20 02:43:10;;;;;;;12.4;9.9;;;;;;;2.28;87.78516;95137.09;;;;
2019/11/20 02:44:11;;;;;;;12.4;9.9;;;;;;;2.28;87.78516;95137.09;;;;
2019/11/20 02:45:12;;;;;;;12.4;9.9;;;;;;;2.28;87.78516;95137.09;;;;
2019/11/20 02:46:13;;;;;;;12.4;9.9;;;;;;;2.28;87.78516;95137.09;;;;
2019/11/20 02:47:15;;;;;;;12.4;9.9;;;;;;;2.28;87.78516;95137.09;;;;
2019/11/20 02:48:16;;;;;;;12.4;9.9;;;;;;;2.28;87.78516;95137.09;;;;
2019/11/20 02:49:17;;;;;;;12.4;9.9;;;;;;;2.28;87.78516;95137.09;;;;
2019/11/20 02:50:18;;;;;;;14.95;10.6;;;;;;;2.29;87.88086;95121.41;;;;
2019/11/20 02:51:19;;;;;;;14.95;10.6;;;;;;;2.29;87.88086;95121.41;;;;
2019/11/20 02:52:20;;;;;;;14.95;10.6;;;;;;;2.29;87.88086;95121.41;;;;
2019/11/20 02:53:22;;;;;;;14.95;10.6;;;;;;;2.29;87.88086;95121.41;;;;
2019/11/20 02:54:23;;;;;;;14.95;10.6;;;;;;;2.29;87.88086;95121.41;;;;
2019/11/20 02:55:24;;;;;;;14.95;10.6;;;;;;;2.29;87.88086;95121.41;;;;
2019/11/20 02:56:25;;;;;;;14.95;10.6;;;;;;;2.29;87.88086;95121.41;;;;
2019/11/20 02:57:26;;;;;;;14.95;10.6;;;;;;;2.29;87.88086;95121.41;;;;
2019/11/20 02:58:28;;;;;;;14.95;10.6;;;;;;;2.29;87.88086;95121.41;;;;
2019/11/20 02:59:29;;;;;;;14.95;10.6;;;;;;;2.29;87.88086;95121.41;;;;
2019/11/20 03:00:30;;;;;;;14.95;10.6;;;;;;;2.29;87.88086;95121.41;;;;
2019/11/20 03:01:32;;;;;;;14.1;10.75;;;;;;;2.39;88.14063;95126.44;;;;
2019/11/20 03:02:33;;;;;;;14.1;10.75;;;;;;;2.39;88.14063;95126.44;;;;
2019/11/20 03:03:34;;;;;;;14.1;10.75;;;;;;;2.39;88.14063;95126.44;;;;
2019/11/20 03:04:35;;;;;;;14.1;10.75;;;;;;;2.39;88.14063;95126.44;;;;
2019/11/20 03:05:36;;;;;;;14.1;10.75;;;;;;;2.39;88.14063;95126.44;;;;
2019/11/20 03:06:38;;;;;;;14.1;10.75;;;;;;;2.39;88.14063;95126.44;;;;
2019/11/20 03:07:39;;;;;;;14.1;10.75;;;;;;;2.39;88.14063;95126.44;;;;
2019/11/20 03:08:40;;;;;;;14.1;10.75;;;;;;;2.39;88.14063;95126.44;;;;
2019/11/20 03:09:41;;;;;;;14.1;10.75;;;;;;;2.39;88.14063;95126.44;;;;
2019/11/20 03:10:42;;;;;;;14.1;10.75;;;;;;;2.39;88.14063;95126.44;;;;
2019/11/20 03:11:44;;;;;;;13.25;10.4;;;;;;;2.44;88.22363;95139.09;;;;
2019/11/20 03:12:45;;;;;;;13.25;10.4;;;;;;;2.44;88.22363;95139.09;;;;
2019/11/20 03:13:46;;;;;;;13.25;10.4;;;;;;;2.44;88.22363;95139.09;;;;
2019/11/20 03:14:47;;;;;;;13.25;10.4;;;;;;;2.44;88.22363;95139.09;;;;
2019/11/20 03:15:49;;;;;;;13.25;10.4;;;;;;;2.44;88.22363;95139.09;;;;
2019/11/20 03:16:50;;;;;;;13.25;10.4;;;;;;;2.44;88.22363;95139.09;;;;
2019/11/20 03:17:51;;;;;;;13.25;10.4;;;;;;;2.44;88.22363;95139.09;;;;
2019/11/20 03:18:53;;;;;;;13.25;10.4;;;;;;;2.44;88.22363;95139.09;;;;
2019/11/20 03:19:54;;;;;;;13.25;10.4;;;;;;;2.44;88.22363;95139.09;;;;
2019/11/20 03:20:55;;;;;;;13.25;10.4;;;;;;;2.44;88.22363;95139.09;;;;
2019/11/20 03:21:56;;;;;;;13.25;10.4;;;;;;;2.44;88.22363;95139.09;;;;
2019/11/20 03:22:57;;;;;;;11.9;10.3;;;;;;;2.6;88.46582;95140.17;;;;
2019/11/20 03:23:59;;;;;;;11.9;10.3;;;;;;;2.6;88.46582;95140.17;;;;
2019/11/20 03:25:00;;;;;;;11.9;10.3;;;;;;;2.6;88.46582;95140.17;;;;
2019/11/20 03:26:01;;;;;;;11.9;10.3;;;;;;;2.6;88.46582;95140.17;;;;
2019/11/20 03:27:02;;;;;;;11.9;10.3;;;;;;;2.6;88.46582;95140.17;;;;
2019/11/20 03:28:04;;;;;;;11.9;10.3;;;;;;;2.6;88.46582;95140.17;;;;
2019/11/20 03:29:05;;;;;;;11.9;10.3;;;;;;;2.6;88.46582;95140.17;;;;
2019/11/20 03:30:06;;;;;;;11.9;10.3;;;;;;;2.6;88.46582;95140.17;;;;
2019/11/20 03:31:08;;;;;;;11.9;10.3;;;;;;;2.6;88.46582;95140.17;;;;
2019/11/20 03:32:09;;;;;;;11.9;10.3;;;;;;;2.6;88.46582;95140.17;;;;
2019/11/20 03:33:10;;;;;;;13.65;10.3;;;;;;;2.67;88.45996;95134.39;;;;
2019/11/20 03:34:11;;;;;;;13.65;10.3;;;;;;;2.67;88.45996;95134.39;;;;
2019/11/20 03:35:12;;;;;;;13.65;10.3;;;;;;;2.67;88.45996;95134.39;;;;
2019/11/20 03:36:14;;;;;;;13.65;10.3;;;;;;;2.67;88.45996;95134.39;;;;
2019/11/20 03:37:15;;;;;;;13.65;10.3;;;;;;;2.67;88.45996;95134.39;;;;
2019/11/20 03:38:16;;;;;;;13.65;10.3;;;;;;;2.67;88.45996;95134.39;;;;
2019/11/20 03:39:17;;;;;;;13.65;10.3;;;;;;;2.67;88.45996;95134.39;;;;
2019/11/20 03:40:18;;;;;;;13.65;10.3;;;;;;;2.67;88.45996;95134.39;;;;
2019/11/20 03:41:20;;;;;;;13.65;10.3;;;;;;;2.67;88.45996;95134.39;;;;
2019/11/20 03:42:24;;;;;;;13.65;10.3;;;;;;;2.67;88.45996;95134.39;;;;
2019/11/20 03:43:26;;;;;;;14.35;11.2;;;;;;;2.7;88.61426;95123.33;;;;
2019/11/20 03:44:36;;;;;;;14.35;11.2;;;;;;;2.7;88.61426;95123.33;;;;
2019/11/20 03:45:39;;;;;;;14.35;11.2;;;;;;;2.7;88.61426;95123.33;;;;
2019/11/20 03:46:44;;;;;;;14.35;11.2;;;;;;;2.7;88.61426;95123.33;;;;
2019/11/20 03:47:51;;;;;;;14.35;11.2;;;;;;;2.7;88.61426;95123.33;;;;
2019/11/20 03:48:52;;;;;;;14.35;11.2;;;;;;;2.7;88.61426;95123.33;;;;
2019/11/20 03:49:53;;;;;;;14.35;11.2;;;;;;;2.7;88.61426;95123.33;;;;
2019/11/20 03:50:54;;;;;;;14.35;11.2;;;;;;;2.7;88.61426;95123.33;;;;
2019/11/20 03:51:56;;;;;;;14.35;11.2;;;;;;;2.7;88.61426;95123.33;;;;
2019/11/20 03:52:59;;;;;;;14.35;11.2;;;;;;;2.7;88.61426;95123.33;;;;
2019/11/20 03:54:00;;;;;;;15.6;12;;;;;;;2.81;88.81348;95123.24;;;;
2019/11/20 03:55:01;;;;;;;15.6;12;;;;;;;2.81;88.81348;95123.24;;;;
2019/11/20 03:56:03;;;;;;;15.6;12;;;;;;;2.81;88.81348;95123.24;;;;
2019/11/20 03:57:05;;;;;;;15.6;12;;;;;;;2.81;88.81348;95123.24;;;;
2019/11/20 03:58:06;;;;;;;15.6;12;;;;;;;2.81;88.81348;95123.24;;;;
2019/11/20 03:59:08;;;;;;;15.6;12;;;;;;;2.81;88.81348;95123.24;;;;
2019/11/20 04:00:09;;;;;;;15.6;12;;;;;;;2.81;88.81348;95123.24;;;;
2019/11/20 04:01:10;;;;;;;15.6;12;;;;;;;2.81;88.81348;95123.24;;;;
2019/11/20 04:02:11;;;;;;;15.6;12;;;;;;;2.81;88.81348;95123.24;;;;
2019/11/20 04:03:13;;;;;;;15.6;12;;;;;;;2.81;88.81348;95123.24;;;;
2019/11/20 04:04:14;;;;;;;15.6;12;;;;;;;2.81;88.81348;95123.24;;;;
2019/11/20 04:05:15;;;;;;;17.7;13.3;;;;;;;2.87;88.83594;95123.39;;;;
2019/11/20 04:06:16;;;;;;;17.7;13.3;;;;;;;2.87;88.83594;95123.39;;;;
2019/11/20 04:07:18;;;;;;;17.7;13.3;;;;;;;2.87;88.83594;95123.39;;;;
2019/11/20 04:08:19;;;;;;;17.7;13.3;;;;;;;2.87;88.83594;95123.39;;;;
2019/11/20 04:09:20;;;;;;;17.7;13.3;;;;;;;2.87;88.83594;95123.39;;;;
2019/11/20 04:10:22;;;;;;;17.7;13.3;;;;;;;2.87;88.83594;95123.39;;;;
2019/11/20 04:11:23;;;;;;;17.7;13.3;;;;;;;2.87;88.83594;95123.39;;;;
2019/11/20 04:12:24;;;;;;;17.7;13.3;;;;;;;2.87;88.83594;95123.39;;;;
2019/11/20 04:13:25;;;;;;;17.7;13.3;;;;;;;2.87;88.83594;95123.39;;;;
2019/11/20 04:14:26;;;;;;;17.7;13.3;;;;;;;2.87;88.83594;95123.39;;;;
2019/11/20 04:15:27;;;;;;;18.15;14.25;;;;;;;2.98;89.03711;95116.71;;;;
2019/11/20 04:16:28;;;;;;;18.15;14.25;;;;;;;2.98;89.03711;95116.71;;;;
2019/11/20 04:17:30;;;;;;;18.15;14.25;;;;;;;2.98;89.03711;95116.71;;;;
2019/11/20 04:18:31;;;;;;;18.15;14.25;;;;;;;2.98;89.03711;95116.71;;;;
2019/11/20 04:19:32;;;;;;;18.15;14.25;;;;;;;2.98;89.03711;95116.71;;;;
2019/11/20 04:20:33;;;;;;;18.15;14.25;;;;;;;2.98;89.03711;95116.71;;;;
2019/11/20 04:21:35;;;;;;;18.15;14.25;;;;;;;2.98;89.03711;95116.71;;;;
2019/11/20 04:22:39;;;;;;;18.15;14.25;;;;;;;2.98;89.03711;95116.71;;;;
2019/11/20 04:23:47;;;;;;;18.15;14.25;;;;;;;2.98;89.03711;95116.71;;;;
2019/11/20 04:24:49;;;;;;;18.15;14.25;;;;;;;2.98;89.03711;95116.71;;;;
2019/11/20 04:25:53;;;;;;;20.3;14.95;;;;;;;2.98;88.98535;95112.62;;;;
2019/11/20 04:26:54;;;;;;;20.3;14.95;;;;;;;2.98;88.98535;95112.62;;;;
2019/11/20 04:27:55;;;;;;;20.3;14.95;;;;;;;2.98;88.98535;95112.62;;;;
2019/11/20 04:28:57;;;;;;;20.3;14.95;;;;;;;2.98;88.98535;95112.62;;;;
2019/11/20 04:30:00;;;;;;;20.3;14.95;;;;;;;2.98;88.98535;95112.62;;;;
2019/11/20 04:31:06;;;;;;;20.3;14.95;;;;;;;2.98;88.98535;95112.62;;;;
2019/11/20 04:32:07;;;;;;;20.3;14.95;;;;;;;2.98;88.98535;95112.62;;;;
2019/11/20 04:33:09;;;;;;;20.3;14.95;;;;;;;2.98;88.98535;95112.62;;;;
2019/11/20 04:34:30;;;;;;;20.3;14.95;;;;;;;2.98;88.98535;95112.62;;;;
2019/11/20 04:35:33;;;;;;;20.3;14.95;;;;;;;2.98;88.98535;95112.62;;;;
2019/11/20 04:37:10;;;;;;;21.85;15.85;;;;;;;3.05;89.20801;95111.33;;;;
2019/11/20 04:45:15;;;;;;;21.85;15.85;;;;;;;3.05;89.20801;95111.33;;;;
2019/11/20 04:46:16;;;;;;;21.85;15.85;;;;;;;3.05;89.20801;95111.33;;;;
2019/11/20 04:47:17;;;;;;;24.55;18.8;;;;;;;3.07;89.2959;95114.21;;;;
2019/11/20 04:48:19;;;;;;;24.55;18.8;;;;;;;3.07;89.2959;95114.21;;;;
2019/11/20 04:49:20;;;;;;;24.55;18.8;;;;;;;3.07;89.2959;95114.21;;;;
2019/11/20 04:50:21;;;;;;;24.55;18.8;;;;;;;3.07;89.2959;95114.21;;;;
2019/11/20 04:51:22;;;;;;;24.55;18.8;;;;;;;3.07;89.2959;95114.21;;;;
2019/11/20 04:52:23;;;;;;;24.55;18.8;;;;;;;3.07;89.2959;95114.21;;;;
2019/11/20 04:53:25;;;;;;;24.55;18.8;;;;;;;3.07;89.2959;95114.21;;;;
2019/11/20 04:54:26;;;;;;;24.55;18.8;;;;;;;3.07;89.2959;95114.21;;;;
2019/11/20 04:55:27;;;;;;;24.55;18.8;;;;;;;3.07;89.2959;95114.21;;;;
2019/11/20 04:56:28;;;;;;;24.55;18.8;;;;;;;3.07;89.2959;95114.21;;;;
2019/11/20 04:57:29;;;;;;;26.75;19.85;;;;;;;3.15;89.56445;95110.08;;;;
2019/11/20 04:58:30;;;;;;;26.75;19.85;;;;;;;3.15;89.56445;95110.08;;;;
2019/11/20 04:59:31;;;;;;;26.75;19.85;;;;;;;3.15;89.56445;95110.08;;;;
2019/11/20 05:00:32;;;;;;;26.75;19.85;;;;;;;3.15;89.56445;95110.08;;;;
2019/11/20 05:01:34;;;;;;;26.75;19.85;;;;;;;3.15;89.56445;95110.08;;;;
2019/11/20 05:02:36;;;;;;;26.75;19.85;;;;;;;3.15;89.56445;95110.08;;;;
2019/11/20 05:03:38;;;;;;;26.75;19.85;;;;;;;3.15;89.56445;95110.08;;;;
2019/11/20 05:04:40;;;;;;;26.75;19.85;;;;;;;3.15;89.56445;95110.08;;;;
2019/11/20 05:05:41;;;;;;;26.75;19.85;;;;;;;3.15;89.56445;95110.08;;;;
2019/11/20 05:06:42;;;;;;;26.75;19.85;;;;;;;3.15;89.56445;95110.08;;;;
2019/11/20 05:07:44;;;;;;;26.75;19.85;;;;;;;3.15;89.56445;95110.08;;;;
2019/11/20 05:08:45;;;;;;;25.55;19.45;;;;;;;3.17;89.65234;95105.35;;;;
2019/11/20 05:09:47;;;;;;;25.55;19.45;;;;;;;3.17;89.65234;95105.35;;;;
2019/11/20 05:10:49;;;;;;;25.55;19.45;;;;;;;3.17;89.65234;95105.35;;;;
2019/11/20 05:11:50;;;;;;;25.55;19.45;;;;;;;3.17;89.65234;95105.35;;;;
2019/11/20 05:12:51;;;;;;;25.55;19.45;;;;;;;3.17;89.65234;95105.35;;;;
2019/11/20 05:13:52;;;;;;;25.55;19.45;;;;;;;3.17;89.65234;95105.35;;;;
2019/11/20 05:14:53;;;;;;;25.55;19.45;;;;;;;3.17;89.65234;95105.35;;;;
2019/11/20 05:15:54;;;;;;;25.55;19.45;;;;;;;3.17;89.65234;95105.35;;;;
2019/11/20 05:16:56;;;;;;;25.55;19.45;;;;;;;3.17;89.65234;95105.35;;;;
2019/11/20 05:17:57;;;;;;;25.55;19.45;;;;;;;3.17;89.65234;95105.35;;;;
2019/11/20 05:18:58;;;;;;;26;19.6;;;;;;;3.25;89.83496;95098.13;;;;
2019/11/20 05:19:59;;;;;;;26;19.6;;;;;;;3.25;89.83496;95098.13;;;;
2019/11/20 05:21:00;;;;;;;26;19.6;;;;;;;3.25;89.83496;95098.13;;;;
2019/11/20 05:22:01;;;;;;;26;19.6;;;;;;;3.25;89.83496;95098.13;;;;
2019/11/20 05:23:03;;;;;;;26;19.6;;;;;;;3.25;89.83496;95098.13;;;;
2019/11/20 05:24:04;;;;;;;26;19.6;;;;;;;3.25;89.83496;95098.13;;;;
2019/11/20 05:25:47;;;;;;;26;19.6;;;;;;;3.25;89.83496;95098.13;;;;
2019/11/20 05:26:49;;;;;;;26;19.6;;;;;;;3.25;89.83496;95098.13;;;;
2019/11/20 05:27:50;;;;;;;26;19.6;;;;;;;3.25;89.83496;95098.13;;;;
2019/11/20 05:28:51;;;;;;;26;19.6;;;;;;;3.25;89.83496;95098.13;;;;
2019/11/20 05:29:52;;;;;;;28.15;20.1;;;;;;;3.26;89.87891;95089.12;;;;
2019/11/20 05:30:53;;;;;;;28.15;20.1;;;;;;;3.26;89.87891;95089.12;;;;
2019/11/20 05:31:55;;;;;;;28.15;20.1;;;;;;;3.26;89.87891;95089.12;;;;
2019/11/20 05:32:56;;;;;;;28.15;20.1;;;;;;;3.26;89.87891;95089.12;;;;
2019/11/20 05:33:57;;;;;;;28.15;20.1;;;;;;;3.26;89.87891;95089.12;;;;
2019/11/20 05:37:44;;;;;;;28.15;20.1;;;;;;;3.26;89.87891;95089.12;;;;
2019/11/20 05:38:45;;;;;;;28.15;20.1;;;;;;;3.26;89.87891;95089.12;;;;
2019/11/20 05:39:46;;;;;;;28.15;20.1;;;;;;;3.26;89.87891;95089.12;;;;
2019/11/20 05:40:48;;;;;;;25.5;19.75;;;;;;;3.31;90.0791;95084.81;;;;
2019/11/20 05:41:50;;;;;;;25.5;19.75;;;;;;;3.31;90.0791;95084.81;;;;
2019/11/20 05:42:51;;;;;;;25.5;19.75;;;;;;;3.31;90.0791;95084.81;;;;
2019/11/20 05:43:53;;;;;;;25.5;19.75;;;;;;;3.31;90.0791;95084.81;;;;
2019/11/20 05:44:54;;;;;;;25.5;19.75;;;;;;;3.31;90.0791;95084.81;;;;
2019/11/20 05:45:55;;;;;;;25.5;19.75;;;;;;;3.31;90.0791;95084.81;;;;
2019/11/20 05:46:57;;;;;;;25.5;19.75;;;;;;;3.31;90.0791;95084.81;;;;
2019/11/20 05:47:58;;;;;;;25.5;19.75;;;;;;;3.31;90.0791;95084.81;;;;
2019/11/20 05:48:59;;;;;;;25.5;19.75;;;;;;;3.31;90.0791;95084.81;;;;
2019/11/20 05:50:00;;;;;;;25.5;19.75;;;;;;;3.31;90.0791;95084.81;;;;
2019/11/20 05:51:02;;;;;;;30;21.45;;;;;;;3.28;90.12402;95084.8;;;;
2019/11/20 05:52:03;;;;;;;30;21.45;;;;;;;3.28;90.12402;95084.8;;;;
2019/11/20 05:53:04;;;;;;;30;21.45;;;;;;;3.28;90.12402;95084.8;;;;
2019/11/20 05:54:06;;;;;;;30;21.45;;;;;;;3.28;90.12402;95084.8;;;;
2019/11/20 05:55:07;;;;;;;30;21.45;;;;;;;3.28;90.12402;95084.8;;;;
2019/11/20 05:56:08;;;;;;;30;21.45;;;;;;;3.28;90.12402;95084.8;;;;
2019/11/20 05:57:09;;;;;;;30;21.45;;;;;;;3.28;90.12402;95084.8;;;;
2019/11/20 05:58:10;;;;;;;30;21.45;;;;;;;3.28;90.12402;95084.8;;;;
2019/11/20 05:59:11;;;;;;;30;21.45;;;;;;;3.28;90.12402;95084.8;;;;
2019/11/20 06:00:13;;;;;;;30;21.45;;;;;;;3.28;90.12402;95084.8;;;;
2019/11/20 06:01:14;;;;;;;27.95;19.85;;;;;;;3.31;90.35156;95069.22;;;;
2019/11/20 06:02:15;;;;;;;27.95;19.85;;;;;;;3.31;90.35156;95069.22;;;;
2019/11/20 06:03:16;;;;;;;27.95;19.85;;;;;;;3.31;90.35156;95069.22;;;;